Baker, Oklahoma
Current Conditions -  °F | °C
As of 7:15 AM on Saturday 01 Nov 2014 (Local Time) from KLBL Reporting Station
Clear Clear  
Wind Chill: 28°   Ceiling: Unl
Heat Index: 36°   Visibility: 10mi
Dew Point: 21°   Wind: 12mph
Humidity: 56%   Direction: 140°SE
Pressure: 30.24"   Gusts: NA
Location:  36.8748°N, 100.837°W
Report Text: KLBL 011215Z AUTO 14010KT 10SM CLR 02/M06 A3024 RMK AO1
Loading
Personal Weather Stations






























Interactive Weather Map
Tropical Storm Tracking
New forecast layout! Learn more

10-Day Weather Forecast

Advertisements
Track Severe Weather on mobile